Data for 08/23/2010

Time Sea-Level Adjusted Pressure Absolute Pressure Temperature Relative Humidity Dew Point   
(mb) (inHg) (mb) (inHg) (C) (F) (%) (C) (F)
00:05 1022 30.18 852 25.16 8.8 47.8 93 7.8 46
00:10 1023 30.21 852 25.16 8.7 47.7 93 7.7 45.9
00:15 1023 30.21 852 25.16 8.7 47.6 93 7.7 45.8
00:20 1023 30.21 852 25.16 8.5 47.3 93 7.4 45.4
00:25 1023 30.21 852 25.16 8.4 47.1 94 7.4 45.3
00:30 1023 30.21 852 25.16 8.3 46.9 94 7.4 45.2
00:35 1023 30.21 852 25.16 8.2 46.8 94 7.3 45.1
00:40 1023 30.21 852 25.16 8.2 46.8 94 7.3 45.1
00:45 1023 30.21 853 25.19 8.3 46.9 94 7.3 45.2
00:50 1024 30.24 853 25.19 8.3 46.9 93 7.3 45.1
00:55 1024 30.24 853 25.19 8.1 46.6 92 6.9 44.4
01:00 1024 30.24 853 25.19 8 46.4 92 6.8 44.3
01:05 1024 30.24 853 25.19 8 46.4 92 6.8 44.3
01:10 1024 30.24 853 25.19 8.1 46.5 93 7 44.5
01:15 1024 30.24 853 25.19 8.1 46.5 93 7 44.5
01:20 1023 30.21 853 25.19 8 46.4 90 6.4 43.5
01:25 1023 30.21 853 25.19 7.8 46 87 5.8 42.5
01:30 1023 30.21 853 25.19 7.7 45.8 86 5.4 41.8
01:35 1023 30.21 853 25.19 7.6 45.7 85 5.3 41.6
01:40 1023 30.21 853 25.19 7.6 45.7 87 5.6 42.1
01:45 1023 30.21 852 25.16 7.6 45.7 89 5.8 42.5
01:50 1023 30.21 853 25.19 7.6 45.6 88 5.8 42.4
01:55 1023 30.21 853 25.19 7.5 45.5 87 5.4 41.8
02:00 1023 30.21 853 25.19 7.4 45.4 86 5.3 41.5
02:05 1023 30.21 853 25.19 7.4 45.3 87 5.4 41.6
02:10 1023 30.21 853 25.19 7.3 45.2 84 4.9 40.8
02:15 1023 30.21 853 25.19 7.5 45.4 84 4.9 40.9
02:20 1023 30.21 852 25.16 7.5 45.5 85 5.2 41.3
02:25 1023 30.21 852 25.16 7.5 45.4 85 5.1 41.2
02:30 1023 30.21 852 25.16 7.5 45.4 85 5.1 41.2
02:35 1023 30.21 852 25.16 7.4 45.4 85 5.1 41.2
02:40 1023 30.21 852 25.16 7.3 45.2 86 5.2 41.3
02:45 1023 30.21 852 25.16 7.4 45.3 86 5.2 41.4
02:50 1023 30.21 852 25.16 7.4 45.3 87 5.5 41.8
02:55 1023 30.21 852 25.16 7.4 45.3 83 4.7 40.5
03:00 1023 30.21 852 25.16 7.9 46.3 77 4.2 39.6
03:05 1023 30.21 852 25.16 8.4 47 74 4 39.2
03:10 1023 30.21 852 25.16 8.6 47.4 74 4.3 39.7
03:15 1023 30.21 852 25.16 8.6 47.4 76 4.7 40.4
03:20 1023 30.21 852 25.16 8.4 47 77 4.7 40.4
03:25 1023 30.21 852 25.16 8.3 46.9 77 4.6 40.2
03:30 1023 30.21 852 25.16 8.3 46.9 77 4.5 40.2
03:35 1023 30.21 852 25.16 8.2 46.8 78 4.5 40.2
03:40 1023 30.21 853 25.19 8.1 46.6 78 4.6 40.3
03:45 1023 30.21 853 25.19 8 46.4 80 4.8 40.7
03:50 1023 30.21 853 25.19 7.9 46.2 81 4.8 40.6
03:55 1023 30.21 853 25.19 8 46.4 77 4.2 39.5
04:00 1024 30.24 853 25.19 8.4 47.1 74 4 39.3
04:05 1024 30.24 853 25.19 8.6 47.5 74 4.3 39.7
04:10 1024 30.24 853 25.19 8.6 47.4 74 4.3 39.7
04:15 1024 30.24 853 25.19 8.6 47.4 73 4.1 39.3
04:20 1024 30.24 853 25.19 8.7 47.7 72 3.9 39
04:25 1024 30.24 853 25.19 8.9 48.1 70 3.9 39
04:30 1024 30.24 853 25.19 9 48.2 70 3.9 39
04:35 1024 30.24 853 25.19 9 48.1 72 4.3 39.7
04:40 1024 30.24 853 25.19 8.8 47.9 72 4.1 39.4
04:45 1024 30.24 853 25.19 8.8 47.8 73 4.3 39.7
04:50 1024 30.24 853 25.19 8.6 47.6 80 5.4 41.8
04:55 1024 30.24 853 25.19 8.2 46.7 85 5.8 42.4
05:00 1024 30.24 853 25.19 8 46.4 83 5.3 41.6
05:05 1024 30.24 854 25.22 8 46.3 85 5.5 42
05:10 1024 30.24 854 25.22 7.9 46.2 85 5.4 41.8
05:15 1024 30.24 854 25.22 7.7 45.9 84 5.2 41.4
05:20 1024 30.24 854 25.22 7.7 45.8 85 5.3 41.5
05:25 1025 30.27 854 25.22 7.6 45.7 83 4.8 40.7
05:30 1025 30.27 854 25.22 7.7 45.9 82 4.9 40.8
05:35 1025 30.27 854 25.22 7.7 45.8 82 4.7 40.5
05:40 1025 30.27 854 25.22 7.6 45.7 82 4.8 40.6
05:45 1025 30.27 854 25.22 7.7 45.8 77 3.9 39
05:50 1025 30.27 854 25.22 7.9 46.1 76 3.9 39.1
05:55 1025 30.27 854 25.22 7.9 46.2 76 3.9 38.9
06:00 1025 30.27 854 25.22 7.9 46.3 76 3.9 39
06:05 1025 30.27 854 25.22 7.9 46.3 76 3.9 39.1
06:10 1025 30.27 854 25.22 7.9 46.2 77 4 39.3
06:15 1025 30.27 854 25.22 7.7 45.8 78 4.1 39.3
06:20 1025 30.27 854 25.22 7.5 45.5 79 4.1 39.3
06:25 1025 30.27 854 25.22 7.4 45.4 79 4 39.2
06:30 1025 30.27 854 25.22 7.5 45.4 80 4.2 39.6
06:35 1025 30.27 854 25.22 7.2 44.9 81 4.1 39.4
06:40 1025 30.27 854 25.22 7.2 44.9 81 4 39.3
06:45 1025 30.27 854 25.22 7.1 44.7 81 4.1 39.4
06:50 1025 30.27 854 25.22 7.2 44.9 81 4.1 39.4
06:55 1025 30.27 854 25.22 7.1 44.8 83 4.4 39.9
07:00 1025 30.27 854 25.22 6.7 44.1 87 4.7 40.5
07:05 1025 30.27 855 25.25 6.3 43.4 89 4.6 40.3
07:10 1025 30.27 855 25.25 6.2 43.1 89 4.5 40.2
07:15 1025 30.27 855 25.25 6.3 43.3 88 4.5 40
07:20 1025 30.27 855 25.25 6.7 44 86 4.6 40.2
07:25 1025 30.27 855 25.25 6.9 44.4 85 4.6 40.2
07:30 1025 30.27 855 25.25 6.8 44.2 87 4.8 40.6
07:35 1026 30.3 855 25.25 6.9 44.4 86 4.7 40.4
07:40 1026 30.3 855 25.25 7.3 45.2 83 4.6 40.2
07:45 1026 30.3 855 25.25 8 46.3 80 4.7 40.5
07:50 1026 30.3 855 25.25 8.1 46.6 82 5.2 41.4
07:55 1026 30.3 855 25.25 8.1 46.5 83 5.4 41.8
08:00 1026 30.3 855 25.25 7.9 46.2 85 5.5 41.8
08:05 1026 30.3 855 25.25 8 46.4 83 5.2 41.4
08:10 1026 30.3 855 25.25 8.1 46.5 82 5.1 41.2
08:15 1026 30.3 855 25.25 8.1 46.5 79 4.7 40.5
08:20 1026 30.3 855 25.25 8.2 46.8 78 4.6 40.3
08:25 1026 30.3 855 25.25 8.5 47.4 75 4.4 40
08:30 1026 30.3 856 25.28 8.7 47.7 77 4.8 40.7
08:35 1026 30.3 856 25.28 8.8 47.8 76 4.8 40.7
08:40 1027 30.33 856 25.28 8.8 47.9 76 4.9 40.9
08:45 1027 30.33 856 25.28 9.1 48.3 77 5.3 41.5
08:50 1027 30.33 856 25.28 9.4 48.8 75 5.2 41.3
08:55 1027 30.33 856 25.28 9.6 49.2 75 5.5 41.8
09:00 1027 30.33 856 25.28 10 50 73 5.5 41.9
09:05 1027 30.33 856 25.28 10.9 51.7 71 5.8 42.5
09:10 1027 30.33 856 25.28 10.3 50.5 72 5.5 41.9
09:15 1027 30.33 856 25.28 10.2 50.3 72 5.4 41.7
09:20 1027 30.33 856 25.28 10.7 51.3 72 5.8 42.4
09:25 1027 30.33 856 25.28 11 51.9 70 5.7 42.3
09:30 1027 30.33 856 25.28 10.8 51.4 71 5.8 42.5
09:35 1027 30.33 856 25.28 10.8 51.4 72 6 42.8
09:40 1027 30.33 856 25.28 11.1 52 68 5.5 41.9
09:45 1027 30.33 856 25.28 11.4 52.4 65 5.1 41.1
09:50 1027 30.33 856 25.28 11.4 52.6 67 5.7 42.2
09:55 1027 30.33 856 25.28 11.5 52.8 66 5.4 41.7
10:00 1027 30.33 856 25.28 11.6 52.9 63 5 40.9
10:05 1027 30.33 857 25.31 11.6 52.9 62 4.6 40.3
10:10 1027 30.33 857 25.31 11.3 52.3 65 5 40.9
10:15 1027 30.33 857 25.31 11.1 51.9 67 5.2 41.3
10:20 1027 30.33 857 25.31 10.9 51.5 66 4.8 40.7
10:25 1027 30.33 857 25.31 11.2 52.2 63 4.5 40.1
10:30 1027 30.33 857 25.31 11.9 53.4 62 5 41
10:35 1028 30.36 857 25.31 11.8 53.3 63 5.2 41.3
10:40 1028 30.36 857 25.31 11.4 52.5 63 4.7 40.4
10:45 1028 30.36 857 25.31 11.1 52 63 4.3 39.8
10:50 1028 30.36 857 25.31 11.4 52.6 64 5 41
10:55 1028 30.36 857 25.31 11.3 52.3 65 5.1 41.1
11:00 1028 30.36 857 25.31 11 51.8 68 5.3 41.6
11:05 1028 30.36 857 25.31 11.3 52.3 65 4.9 40.8
11:10 1028 30.36 857 25.31 11.8 53.3 62 4.9 40.8
11:15 1028 30.36 857 25.31 12.2 53.9 60 4.7 40.5
11:20 1028 30.36 857 25.31 12.7 54.9 58 4.8 40.6
11:25 1028 30.36 857 25.31 12.6 54.6 56 4.2 39.6
11:30 1028 30.36 857 25.31 13.1 55.7 51 3.3 37.9
11:35 1028 30.36 857 25.31 14.3 57.7 48 3.6 38.4
11:40 1028 30.36 857 25.31 14.4 57.9 48 3.6 38.5
11:45 1028 30.36 857 25.31 15 59.1 46 3.6 38.4
11:50 1028 30.36 857 25.31 15.6 60.1 41 2.4 36.3
11:55 1028 30.36 857 25.31 15.1 59.2 45 3.4 38.1
12:00 1028 30.36 857 25.31 14.9 58.9 40 1.4 34.6
12:05 1028 30.36 857 25.31 15.8 60.5 37 1.4 34.5
12:10 1028 30.36 857 25.31 15.6 60 38 1.4 34.6
12:15 1028 30.36 857 25.31 15.7 60.2 39 1.7 35.1
12:20 1028 30.36 857 25.31 16.3 61.3 35 0.8 33.4
12:25 1028 30.36 857 25.31 16.6 61.8 34 0.6 33.1
12:30 1028 30.36 857 25.31 16.3 61.3 35 1.1 33.9
12:35 1028 30.36 857 25.31 16.7 62.1 34 0.9 33.6
12:40 1028 30.36 857 25.31 16.9 62.5 31 -0 32
12:45 1028 30.36 857 25.31 16.4 61.5 32 -0.1 31.8
12:50 1028 30.36 857 25.31 16.7 62 33 0.5 32.9
12:55 1028 30.36 857 25.31 17.1 62.8 31 0 32
13:00 1028 30.36 857 25.31 17.3 63.1 30 -0.2 31.7
13:05 1028 30.36 857 25.31 17 62.5 31 -0.2 31.7
13:10 1028 30.36 857 25.31 17.2 63 32 0.5 33
13:15 1027 30.33 857 25.31 17.1 62.8 30 -0.4 31.3
13:20 1027 30.33 857 25.31 17.6 63.8 31 0.4 32.8
13:25 1027 30.33 857 25.31 18.2 64.7 29 0.1 32.1
13:30 1027 30.33 857 25.31 18.2 64.7 28 -0.4 31.3
13:35 1027 30.33 857 25.31 17.6 63.7 32 0.9 33.7
13:40 1027 30.33 857 25.31 17.6 63.7 32 0.8 33.5
13:45 1027 30.33 857 25.31 17.8 64 31 0.5 32.9
13:50 1027 30.33 857 25.31 18.1 64.5 29 -0.2 31.7
13:55 1027 30.33 857 25.31 17.5 63.5 31 0.2 32.4
14:00 1027 30.33 857 25.31 17.4 63.3 31 0.2 32.3
14:05 1027 30.33 857 25.31 17.4 63.3 30 -0 32
14:10 1027 30.33 857 25.31 18.4 65.1 30 0.7 33.3
14:15 1027 30.33 857 25.31 18.1 64.5 30 0.4 32.8
14:20 1027 30.33 856 25.28 18 64.3 28 -0.5 31.2
14:25 1027 30.33 857 25.31 17.7 63.8 31 0.6 33
14:30 1027 30.33 857 25.31 17.8 64.1 31 0.5 32.8
14:35 1027 30.33 856 25.28 18.3 65 31 1.2 34.2
14:40 1027 30.33 856 25.28 18.9 66.1 29 0.6 33
14:45 1027 30.33 857 25.31 18.7 65.7 30 1 33.8
14:50 1027 30.33 857 25.31 18.1 64.5 32 1.4 34.4
14:55 1027 30.33 857 25.31 18.2 64.8 31 1 33.7
15:00 1027 30.33 856 25.28 18.5 65.3 32 1.4 34.6
15:05 1027 30.33 856 25.28 18.7 65.7 30 0.8 33.4
15:10 1027 30.33 856 25.28 18.7 65.7 32 1.8 35.3
15:15 1027 30.33 856 25.28 18.5 65.3 31 1.1 33.9
15:20 1027 30.33 856 25.28 18.7 65.6 31 1.2 34.2
15:25 1027 30.33 856 25.28 18.6 65.5 31 1.3 34.4
15:30 1027 30.33 856 25.28 18.9 66 29 0.7 33.3
15:35 1027 30.33 856 25.28 19.3 66.8 29 0.8 33.4
15:40 1027 30.33 856 25.28 18.7 65.6 29 0.4 32.6
15:45 1027 30.33 856 25.28 19.1 66.3 28 0.5 33
15:50 1027 30.33 856 25.28 19.1 66.4 29 0.9 33.7
15:55 1027 30.33 856 25.28 18.8 65.9 28 0.3 32.5
16:00 1027 30.33 856 25.28 18.7 65.7 30 1 33.8
16:05 1027 30.33 856 25.28 19 66.2 28 0.3 32.6
16:10 1027 30.33 856 25.28 19.3 66.7 27 0 32.1
16:15 1027 30.33 856 25.28 19.1 66.3 27 -0.3 31.5
16:20 1027 30.33 856 25.28 19.5 67.1 27 0.4 32.7
16:25 1027 30.33 856 25.28 19 66.1 29 0.6 33.1
16:30 1027 30.33 856 25.28 18.7 65.6 27 -0.6 30.9
16:35 1027 30.33 856 25.28 18.9 66.1 28 0.1 32.3
16:40 1027 30.33 856 25.28 18.6 65.4 28 -0.2 31.7
16:45 1027 30.33 856 25.28 19.1 66.3 25 -1.1 30
16:50 1027 30.33 856 25.28 18.8 65.9 28 0.2 32.4
16:55 1027 30.33 856 25.28 18.8 65.9 27 -0.5 31.1
17:00 1027 30.33 856 25.28 18.8 65.8 27 -0.6 30.9
17:05 1027 30.33 856 25.28 19.4 66.8 27 0.1 32.1
17:10 1027 30.33 856 25.28 19.7 67.4 26 0 32.1
17:15 1027 30.33 856 25.28 19.7 67.5 26 -0.3 31.5
17:20 1027 30.33 856 25.28 19.6 67.3 26 -0.4 31.3
17:25 1027 30.33 856 25.28 19.7 67.5 25 -0.6 30.9
17:30 1027 30.33 856 25.28 19.6 67.2 25 -0.9 30.4
17:35 1027 30.33 856 25.28 19.7 67.4 25 -0.6 30.9
17:40 1027 30.33 856 25.28 19.4 66.9 26 -0.7 30.7
17:45 1027 30.33 856 25.28 19.4 67 25 -0.8 30.6
17:50 1027 30.33 856 25.28 19.5 67.2 26 -0.4 31.2
17:55 1027 30.33 856 25.28 20 67.9 24 -0.9 30.4
18:00 1027 30.33 856 25.28 20 68 25 -0.5 31
18:05 1027 30.33 856 25.28 19.7 67.4 25 -0.5 31.2
18:10 1027 30.33 856 25.28 19.5 67.1 25 -0.9 30.3
18:15 1027 30.33 856 25.28 19.5 67.2 25 -0.7 30.8
18:20 1027 30.33 856 25.28 19.2 66.6 26 -0.5 31.2
18:25 1027 30.33 856 25.28 19 66.2 26 -0.7 30.7
18:30 1027 30.33 856 25.28 19 66.2 26 -1 30.1
18:35 1027 30.33 856 25.28 19 66.2 27 -0.4 31.3
18:40 1027 30.33 856 25.28 18.7 65.7 28 0 32
18:45 1027 30.33 856 25.28 18.4 65.2 28 -0.4 31.2
18:50 1027 30.33 856 25.28 18.2 64.8 28 -0.4 31.3
18:55 1027 30.33 856 25.28 18.2 64.7 27 -0.8 30.6
19:00 1027 30.33 856 25.28 18.2 64.7 27 -0.8 30.6
19:05 1027 30.33 856 25.28 18.2 64.7 28 -0.7 30.7
19:10 1027 30.33 856 25.28 18.1 64.6 28 -0.4 31.3
19:15 1027 30.33 856 25.28 18.1 64.5 28 -0.6 30.9
19:20 1027 30.33 857 25.31 18 64.3 28 -0.5 31.1
19:25 1027 30.33 857 25.31 17.9 64.2 28 -0.5 31.1
19:30 1027 30.33 857 25.31 17.8 64.1 30 -0 31.9
19:35 1027 30.33 857 25.31 17.7 63.9 28 -0.7 30.7
19:40 1027 30.33 857 25.31 17.6 63.7 29 -0.4 31.4
19:45 1027 30.33 857 25.31 17.6 63.6 30 0 32.1
19:50 1027 30.33 857 25.31 17.5 63.5 32 0.6 33.1
19:55 1027 30.33 857 25.31 17.3 63.2 31 0.1 32.1
20:00 1027 30.33 857 25.31 17.2 63 31 0.2 32.4
20:05 1027 30.33 857 25.31 17.2 62.9 32 0.3 32.6
20:10 1027 30.33 857 25.31 17 62.6 31 0.1 32.1
20:15 1027 30.33 857 25.31 16.9 62.4 34 1 33.8
20:20 1027 30.33 857 25.31 16.7 62.1 33 0.6 33.2
20:25 1028 30.36 857 25.31 16.5 61.6 35 1.1 33.9
20:30 1028 30.36 857 25.31 16.3 61.3 35 1 33.9
20:35 1028 30.36 857 25.31 15.9 60.6 45 3.9 39
20:40 1028 30.36 857 25.31 14.7 58.5 49 4.2 39.6
20:45 1028 30.36 857 25.31 13.6 56.5 51 3.7 38.6
20:50 1028 30.36 857 25.31 13.1 55.5 52 3.5 38.2
20:55 1028 30.36 857 25.31 12.7 54.9 54 3.7 38.6
21:00 1028 30.36 857 25.31 12.4 54.4 54 3.6 38.4
21:05 1028 30.36 857 25.31 12.3 54.2 54 3.3 37.9
21:10 1028 30.36 857 25.31 12.3 54.2 52 2.8 37
21:15 1028 30.36 857 25.31 12.5 54.4 50 2.5 36.5
21:20 1028 30.36 857 25.31 12.5 54.5 50 2.4 36.3
21:25 1028 30.36 857 25.31 12.5 54.5 51 2.7 36.9
21:30 1028 30.36 857 25.31 12.3 54.1 53 2.9 37.3
21:35 1028 30.36 857 25.31 12 53.6 53 2.7 36.9
21:40 1028 30.36 857 25.31 11.6 52.9 55 3 37.5
21:45 1028 30.36 857 25.31 11.3 52.3 56 2.8 37
21:50 1028 30.36 857 25.31 11.1 52 58 3.1 37.5
21:55 1028 30.36 857 25.31 11 51.8 57 2.8 37
22:00 1028 30.36 857 25.31 11 51.7 57 2.7 36.9
22:05 1028 30.36 858 25.34 10.8 51.4 58 2.8 37.1
22:10 1028 30.36 858 25.34 10.6 51.1 58 2.6 36.7
22:15 1028 30.36 858 25.34 10.6 51 58 2.8 37
22:20 1029 30.39 858 25.34 10.4 50.7 62 3.4 38.1
22:25 1029 30.39 858 25.34 10.4 50.7 61 3.2 37.7
22:30 1029 30.39 858 25.34 10.2 50.4 61 3.1 37.6
22:35 1029 30.39 858 25.34 10.3 50.5 56 2 35.6
22:40 1029 30.39 858 25.34 10.8 51.4 53 1.7 35
22:45 1029 30.39 858 25.34 11.2 52.2 51 1.6 34.9
22:50 1029 30.39 858 25.34 11.4 52.5 52 1.8 35.3
22:55 1029 30.39 858 25.34 11.3 52.4 55 2.6 36.6
23:00 1029 30.39 858 25.34 10.7 51.2 58 2.8 37
23:05 1029 30.39 858 25.34 10.3 50.6 57 2.3 36.1
23:10 1029 30.39 858 25.34 10.4 50.7 55 1.8 35.2
23:15 1029 30.39 858 25.34 10.7 51.2 56 2.3 36.1
23:20 1029 30.39 858 25.34 10.8 51.5 53 1.6 34.8
23:25 1029 30.39 858 25.34 10.8 51.5 56 2.3 36.2
23:30 1029 30.39 858 25.34 10.4 50.7 57 2.2 36
23:35 1029 30.39 858 25.34 10.1 50.1 58 2.1 35.8
23:40 1029 30.39 858 25.34 9.9 49.9 58 2.1 35.8
23:45 1029 30.39 858 25.34 10 50.1 56 1.8 35.2
23:50 1029 30.39 858 25.34 10 50 59 2.4 36.2
23:55 1029 30.39 858 25.34 9.6 49.3 59 2.1 35.7
24:00 1029 30.39 858 25.34 9.4 48.9 60 2.1 35.8